Airfield :
LOGIN :

Register | Disclaimer

   EN    FR    IT 

 










Legend :    VFR   Marginal VFR   IFR   Intensive IFR   Very Intensive IFR
Visi :
Ceiling :
>= 8 km
>= 3000ft
5 to 8 km
1000 to 3000 ft
1500m to 5 km
500 to 1000 ft
800 to 1500m
200 to 500 ft
< 800m
< 200 ft
Symbols :   Thunderstorms  Fog  Heavy snow  Heavy precipitations  Wind > 20 kt
SIGMETs :     Misc.  Thunderstorms  Icing  Turbulence  Mountain Waves  Volcanic Ashes







- Airport Elevation : 121 ft
- IATA code : HUY
- Download approach charts


EGNJ - Humberside

CURRENT METAR :
  • 210350Z AUTO 12012KT 3100 DZ FEW007/// SCT010/// BKN015/// 05/04 Q1007 RERA

EXPIRED METARs :
  • 210320Z AUTO 10011KT 9999 FEW013/// SCT017/// BKN023/// 05/04 Q1006 RERA
  • 210250Z AUTO 09009KT 9999 -RA FEW009/// BKN014/// OVC018/// 04/03 Q1006 RERA
  • 210220Z AUTO 09009KT 5000 DZ BKN011/// BKN016/// 05/04 Q1007 RERA
  • 210150Z AUTO 09011KT 8000 -RA SCT009/// BKN013/// OVC018/// 05/03 Q1007
  • 210120Z AUTO 09013KT 3300 RA FEW006/// SCT009/// BKN014/// 05/04 Q1007

TAF AMD TAF EGNJ
Valid from the 21 at 03:00 until the 21 at 12:00 UTC


210350Z 2103/2112 08012KT 9999 SCT009
TEMPO 2103/2107 2500 RA BKN009
BECMG 2106/2109 14010KT
ATIS : +44 1652 682 020
No reported NOTAMs for that airfield.
1 SIGMET reported for the London FIR (EGTT) :
 
Severe mountain waves
EGTT SIGMET 01 VALID 210100/210500 EGRR
EGTT LONDON FIR SEV MTW FCST WI N5500 W00200 - N5356 W00130 - N5345 W00530 - N5500 W00532 - N5500 W00530 - N5500 W00200 FL030/120 MOV N 05KT WKN=



MET'MAP, your aeronautical weather chart ! - Copyright ORBIFLY December 2007 - Disclaimer

ORBIFLY MET'MAP TEAM :

Programming & Development : Alexandra Zaïnal
Concept & Development : Baudouin d'Aumeries
Co-Development & Prog : Marc-Olivier Méhu
Technical & hardware support : Manuel Goepfert

Contact : metmap@orbifly.com




SOURCES & CREDITS :

   NOAA